Time;durP1;ratioP1;P1;durP2;ratioP2;P2;SDS_P1;SDS_P2;PMS_P1;PMS_P2;Temp;Humidity;BMP_temperature;BMP_pressure;BME280_temperature;BME280_humidity;BME280_pressure;Samples;Min_cycle;Max_cycle;Signal;HPM_P1;HPM_P2
2023/03/14 00:01:20;;;;;;;37.72;5.53;;;10.80;99.90;;;;;;5015134;28;20058;-58
2023/03/14 00:03:47;;;;;;;50.25;8.65;;;10.80;99.90;;;;;;5024399;28;20050;-59
2023/03/14 00:06:14;;;;;;;30.90;6.10;;;10.70;99.90;;;;;;5019246;28;20045;-59
2023/03/14 00:08:41;;;;;;;30.95;5.25;;;10.70;99.90;;;;;;5018664;28;20045;-60
2023/03/14 00:11:15;;;;;;;38.70;6.53;;;10.70;99.90;;;;;;5016762;28;20057;-59
2023/03/14 00:13:43;;;;;;;21.92;5.90;;;10.70;99.90;;;;;;5008189;28;20538;-56
2023/03/14 00:16:12;;;;;;;31.00;6.70;;;10.60;99.90;;;;;;5021458;28;20419;-58
2023/03/14 00:18:39;;;;;;;33.50;5.93;;;10.50;99.90;;;;;;5026913;28;20057;-54
2023/03/14 00:21:06;;;;;;;34.40;6.00;;;10.40;99.90;;;;;;5005924;28;20038;-54
2023/03/14 00:23:35;;;;;;;22.60;4.40;;;10.30;99.90;;;;;;5021369;28;20102;-57
2023/03/14 00:26:04;;;;;;;34.28;5.88;;;10.20;99.90;;;;;;5016870;28;20056;-58
2023/03/14 00:28:31;;;;;;;33.95;6.97;;;10.20;99.90;;;;;;5002982;28;20061;-55
2023/03/14 00:30:58;;;;;;;26.73;7.35;;;10.10;99.90;;;;;;5007046;28;20046;-60
2023/03/14 00:33:25;;;;;;;30.38;5.05;;;10.10;99.90;;;;;;5019896;28;20507;-58
2023/03/14 00:35:53;;;;;;;32.78;4.80;;;10.10;99.90;;;;;;5020542;28;20087;-55
2023/03/14 00:38:21;;;;;;;15.68;3.30;;;10.00;99.90;;;;;;5022865;28;20038;-55
2023/03/14 00:40:47;;;;;;;20.00;3.58;;;10.00;99.90;;;;;;5003978;28;20052;-58
2023/03/14 00:43:14;;;;;;;9.45;2.92;;;10.00;99.90;;;;;;5022904;28;20128;-55
2023/03/14 00:45:41;;;;;;;23.67;5.90;;;10.00;99.90;;;;;;5013666;28;20053;-58
2023/03/14 00:48:08;;;;;;;15.45;2.88;;;10.00;99.90;;;;;;5023880;28;20045;-57
2023/03/14 00:50:35;;;;;;;12.88;2.30;;;10.00;99.90;;;;;;5023194;28;20045;-55
2023/03/14 00:53:03;;;;;;;16.88;2.78;;;9.90;99.90;;;;;;5025548;28;20049;-57
2023/03/14 00:55:31;;;;;;;8.63;2.55;;;9.90;99.90;;;;;;5029022;28;20132;-59
2023/03/14 00:57:57;;;;;;;17.15;3.47;;;9.90;99.90;;;;;;5002456;28;20053;-59
2023/03/14 01:00:24;;;;;;;17.15;3.85;;;9.90;99.90;;;;;;5029313;28;20049;-59
2023/03/14 01:02:51;;;;;;;14.50;3.00;;;9.90;99.90;;;;;;5020373;28;20038;-58
2023/03/14 01:05:18;;;;;;;12.35;2.53;;;9.90;99.90;;;;;;5009260;28;20131;-63
2023/03/14 01:07:44;;;;;;;16.90;2.88;;;9.90;99.90;;;;;;4677411;28;9999828;-59
2023/03/14 01:10:11;;;;;;;9.60;2.28;;;9.90;99.90;;;;;;5018171;28;20052;-60
2023/03/14 01:12:38;;;;;;;11.43;2.47;;;9.80;99.90;;;;;;5015768;28;20049;-58
2023/03/14 01:15:05;;;;;;;11.95;2.03;;;9.90;99.90;;;;;;5001997;28;20058;-59
2023/03/14 01:17:32;;;;;;;10.50;1.35;;;9.90;99.90;;;;;;5014591;28;20054;-60
2023/03/14 01:19:59;;;;;;;12.30;2.40;;;9.80;99.90;;;;;;5012701;28;20049;-60
2023/03/14 01:22:26;;;;;;;10.43;1.42;;;9.80;99.90;;;;;;5025291;28;20045;-59
2023/03/14 01:24:53;;;;;;;10.30;2.22;;;9.80;99.90;;;;;;5018423;28;20059;-60
2023/03/14 01:27:20;;;;;;;4.70;1.38;;;9.70;99.90;;;;;;5027438;28;20045;-58
2023/03/14 01:29:47;;;;;;;4.45;0.98;;;9.70;99.90;;;;;;5020789;28;20049;-57
2023/03/14 01:32:13;;;;;;;4.65;0.60;;;9.50;99.90;;;;;;5027750;28;20045;-59
2023/03/14 01:34:40;;;;;;;2.10;0.77;;;9.10;99.90;;;;;;5017954;28;20050;-59
2023/03/14 01:37:07;;;;;;;7.53;0.80;;;8.60;99.90;;;;;;5028719;28;20050;-58
2023/03/14 01:39:34;;;;;;;2.05;0.50;;;8.40;99.90;;;;;;5022048;28;20440;-60
2023/03/14 01:42:01;;;;;;;1.25;0.40;;;8.20;99.90;;;;;;5020860;28;20049;-59
2023/03/14 01:44:28;;;;;;;2.65;0.60;;;8.20;99.90;;;;;;5021538;28;20045;-58
2023/03/14 01:46:55;;;;;;;0.45;0.45;;;8.00;99.90;;;;;;5012987;28;20218;-58
2023/03/14 01:49:30;;;;;;;1.00;0.50;;;8.00;99.90;;;;;;5002586;28;20057;-59
2023/03/14 01:52:06;;;;;;;1.40;0.80;;;8.00;99.90;;;;;;4997527;28;20080;-59
2023/03/14 01:54:36;;;;;;;3.03;0.55;;;8.00;99.90;;;;;;5020352;28;20404;-59
2023/03/14 01:57:25;;;;;;;0.45;0.40;;;7.90;99.90;;;;;;5027724;28;20053;-58
2023/03/14 02:00:11;;;;;;;1.40;0.60;;;7.90;99.90;;;;;;5001627;28;20045;-58
2023/03/14 02:02:38;;;;;;;3.75;1.77;;;7.70;99.90;;;;;;5011613;28;20049;-59
2023/03/14 02:05:05;;;;;;;2.05;0.88;;;7.60;99.90;;;;;;5002485;28;20056;-56
2023/03/14 02:07:52;;;;;;;0.63;0.50;;;7.60;99.90;;;;;;5016078;28;20103;-60
2023/03/14 02:10:21;;;;;;;2.65;0.50;;;7.50;99.90;;;;;;5017896;28;20352;-59
2023/03/14 02:12:48;;;;;;;1.55;0.60;;;7.30;99.90;;;;;;5027720;28;20155;-59
2023/03/14 02:15:15;;;;;;;2.42;0.63;;;7.20;99.90;;;;;;5001538;28;20064;-58
2023/03/14 02:17:42;;;;;;;2.65;0.82;;;7.10;99.90;;;;;;5025170;28;20041;-59
2023/03/14 02:20:12;;;;;;;2.25;0.75;;;7.10;99.90;;;;;;5003834;28;20073;-58
2023/03/14 02:22:40;;;;;;;1.85;0.68;;;7.10;99.90;;;;;;5023685;28;20065;-58
2023/03/14 02:25:12;;;;;;;2.45;0.63;;;7.10;99.90;;;;;;5005043;28;20152;-58
2023/03/14 02:27:39;;;;;;;2.42;0.70;;;7.00;99.90;;;;;;5008774;28;20045;-58
2023/03/14 02:30:11;;;;;;;3.65;0.90;;;7.00;99.90;;;;;;5006979;28;20087;-58
2023/03/14 02:32:39;;;;;;;2.45;0.60;;;7.00;99.90;;;;;;5002960;28;20107;-59
2023/03/14 02:35:11;;;;;;;1.70;0.60;;;6.90;99.90;;;;;;5001071;28;20124;-56
2023/03/14 02:37:49;;;;;;;3.13;0.82;;;7.00;99.90;;;;;;5005905;28;20063;-59
2023/03/14 02:40:15;;;;;;;4.65;1.13;;;7.00;99.90;;;;;;5008340;28;20285;-59
2023/03/14 02:42:42;;;;;;;1.88;0.98;;;7.00;99.90;;;;;;5018294;28;20476;-59
2023/03/14 02:45:09;;;;;;;3.17;0.80;;;7.00;99.90;;;;;;5007190;28;20132;-58
2023/03/14 02:47:38;;;;;;;3.20;1.50;;;7.00;99.90;;;;;;5018065;28;20049;-59
2023/03/14 02:50:08;;;;;;;2.60;0.85;;;7.10;99.90;;;;;;5008115;28;20088;-59
2023/03/14 02:52:35;;;;;;;2.35;1.02;;;7.00;99.90;;;;;;5001644;28;20052;-58
2023/03/14 02:55:02;;;;;;;3.03;1.02;;;7.00;99.90;;;;;;5025425;28;20076;-58
2023/03/14 02:57:28;;;;;;;1.58;0.75;;;7.00;99.90;;;;;;5026671;28;20073;-58
2023/03/14 02:59:59;;;;;;;3.38;0.98;;;6.90;99.90;;;;;;5026444;28;20128;-57
2023/03/14 03:02:27;;;;;;;7.60;0.95;;;6.90;99.90;;;;;;5021226;28;20050;-58
2023/03/14 03:04:54;;;;;;;2.72;0.50;;;6.90;99.90;;;;;;4985964;28;20077;-58
2023/03/14 03:07:20;;;;;;;1.80;0.63;;;6.80;99.90;;;;;;5023656;28;20091;-59
2023/03/14 03:09:47;;;;;;;3.53;0.68;;;6.70;99.90;;;;;;5010886;28;20137;-59
2023/03/14 03:12:14;;;;;;;4.07;1.45;;;6.60;99.90;;;;;;5017238;28;20084;-58
2023/03/14 03:14:41;;;;;;;2.35;0.40;;;6.50;99.90;;;;;;5024110;28;20094;-58
2023/03/14 03:17:07;;;;;;;5.07;0.60;;;6.40;99.90;;;;;;5019151;28;20133;-58
2023/03/14 03:19:34;;;;;;;10.23;0.85;;;6.40;99.90;;;;;;5022411;28;20049;-58
2023/03/14 03:22:01;;;;;;;2.22;0.60;;;6.30;99.90;;;;;;5021488;28;20133;-59
2023/03/14 03:24:28;;;;;;;3.42;0.82;;;6.30;99.90;;;;;;5019689;28;20056;-59
2023/03/14 03:26:54;;;;;;;1.65;0.60;;;6.30;99.90;;;;;;5022940;28;20307;-59
2023/03/14 03:29:21;;;;;;;1.77;0.60;;;6.30;99.90;;;;;;5019522;28;20045;-59
2023/03/14 03:31:48;;;;;;;5.82;1.10;;;6.30;99.90;;;;;;5011900;28;20096;-59
2023/03/14 03:34:15;;;;;;;5.47;0.82;;;6.20;99.90;;;;;;5020238;28;20429;-58
2023/03/14 03:36:41;;;;;;;1.20;0.60;;;6.20;99.90;;;;;;5004657;28;20052;-58
2023/03/14 03:39:08;;;;;;;2.00;0.70;;;6.20;99.90;;;;;;5020044;28;20073;-60
2023/03/14 03:41:35;;;;;;;2.33;0.57;;;6.20;99.90;;;;;;5011070;28;20045;-58
2023/03/14 03:44:02;;;;;;;3.30;0.80;;;6.10;99.90;;;;;;4994066;28;20085;-59
2023/03/14 03:46:28;;;;;;;1.23;0.40;;;6.10;99.90;;;;;;5025004;28;20171;-58
2023/03/14 03:48:56;;;;;;;2.58;1.05;;;6.10;99.90;;;;;;5014736;28;20046;-59
2023/03/14 03:51:23;;;;;;;2.72;0.65;;;6.00;99.90;;;;;;5009686;28;20046;-59
2023/03/14 03:53:50;;;;;;;3.72;0.60;;;6.00;99.90;;;;;;5019385;28;20045;-58
2023/03/14 03:56:17;;;;;;;1.73;0.50;;;6.00;99.90;;;;;;5027705;28;20052;-59
2023/03/14 03:58:43;;;;;;;0.57;0.30;;;6.00;99.90;;;;;;5015377;28;20060;-57
2023/03/14 04:01:10;;;;;;;1.52;0.70;;;6.00;99.90;;;;;;5023074;28;20488;-60
2023/03/14 04:03:40;;;;;;;2.58;0.63;;;6.00;99.90;;;;;;5018095;28;20049;-59
2023/03/14 04:06:11;;;;;;;1.50;0.80;;;6.00;99.90;;;;;;5026688;28;20052;-60
2023/03/14 04:08:40;;;;;;;1.30;0.50;;;6.00;99.90;;;;;;5020247;28;20793;-56
2023/03/14 04:11:07;;;;;;;4.43;0.73;;;5.90;99.90;;;;;;5019844;28;20561;-58
2023/03/14 04:13:33;;;;;;;3.95;0.82;;;6.00;99.90;;;;;;5018347;28;20449;-58
2023/03/14 04:16:00;;;;;;;4.25;2.05;;;5.90;99.90;;;;;;5017909;28;20121;-58
2023/03/14 04:18:27;;;;;;;3.40;0.50;;;5.90;99.90;;;;;;5011768;28;20088;-58
2023/03/14 04:20:54;;;;;;;4.63;1.25;;;5.90;99.90;;;;;;5019203;28;20088;-59
2023/03/14 04:23:23;;;;;;;2.50;0.60;;;5.80;99.90;;;;;;5022444;28;20410;-58
2023/03/14 04:25:51;;;;;;;6.38;0.80;;;5.80;99.90;;;;;;5016600;28;20100;-58
2023/03/14 04:28:18;;;;;;;12.15;1.55;;;5.80;99.90;;;;;;5007296;28;20049;-60
2023/03/14 04:30:45;;;;;;;10.68;0.80;;;5.80;99.90;;;;;;5002741;28;20074;-54
2023/03/14 04:33:14;;;;;;;4.22;0.70;;;5.80;99.90;;;;;;5022302;28;20042;-59
2023/03/14 04:35:40;;;;;;;5.47;0.77;;;5.70;99.90;;;;;;5020349;28;20045;-58
2023/03/14 04:38:07;;;;;;;2.33;0.88;;;5.70;99.90;;;;;;5009037;28;20057;-58
2023/03/14 04:40:37;;;;;;;7.07;1.10;;;5.60;99.90;;;;;;5020421;28;20065;-58
2023/03/14 04:43:04;;;;;;;9.15;1.25;;;5.60;99.90;;;;;;5024066;28;20059;-58
2023/03/14 04:45:30;;;;;;;2.30;0.77;;;5.60;99.90;;;;;;5000821;28;20436;-59
2023/03/14 04:47:57;;;;;;;3.15;0.70;;;5.60;99.90;;;;;;5010156;28;20060;-57
2023/03/14 04:50:24;;;;;;;2.28;0.68;;;5.50;99.90;;;;;;5017578;28;20045;-57
2023/03/14 04:52:50;;;;;;;8.65;1.25;;;5.50;99.90;;;;;;5009406;28;20045;-56
2023/03/14 04:55:17;;;;;;;4.82;0.88;;;5.50;99.90;;;;;;5017304;28;20044;-58
2023/03/14 04:57:44;;;;;;;3.03;0.60;;;5.50;99.90;;;;;;5014871;28;20049;-56
2023/03/14 05:00:11;;;;;;;8.02;1.40;;;5.40;99.90;;;;;;5014045;28;20501;-56
2023/03/14 05:02:38;;;;;;;4.60;1.40;;;5.50;99.90;;;;;;5020561;28;20054;-58
2023/03/14 05:05:05;;;;;;;13.13;2.30;;;5.40;99.90;;;;;;5014671;28;20056;-58
2023/03/14 05:07:32;;;;;;;4.68;1.05;;;5.40;99.90;;;;;;5021904;28;20050;-59
2023/03/14 05:09:58;;;;;;;3.15;0.80;;;5.40;99.90;;;;;;5014658;28;20053;-59
2023/03/14 05:12:25;;;;;;;13.93;2.63;;;5.30;99.90;;;;;;5023997;28;20046;-56
2023/03/14 05:14:52;;;;;;;6.72;1.20;;;5.30;99.90;;;;;;5012951;28;20129;-58
2023/03/14 05:17:19;;;;;;;10.40;1.27;;;5.30;99.90;;;;;;5023238;28;20046;-58
2023/03/14 05:19:45;;;;;;;10.35;1.50;;;5.30;99.90;;;;;;5018001;28;20044;-56
2023/03/14 05:22:12;;;;;;;8.75;1.55;;;5.30;99.90;;;;;;5022931;28;20132;-57
2023/03/14 05:24:39;;;;;;;4.43;1.83;;;5.30;99.90;;;;;;5011840;28;20076;-57
2023/03/14 05:27:06;;;;;;;9.43;1.58;;;5.30;99.90;;;;;;5017668;28;20084;-58
2023/03/14 05:29:32;;;;;;;11.32;2.15;;;5.30;99.90;;;;;;5023833;28;20073;-58
2023/03/14 05:31:59;;;;;;;8.13;1.65;;;5.30;99.90;;;;;;5021069;28;20060;-58
2023/03/14 05:34:26;;;;;;;8.52;1.60;;;5.30;99.90;;;;;;5013414;28;20042;-57
2023/03/14 05:36:52;;;;;;;10.85;1.33;;;5.30;99.90;;;;;;5019669;28;20057;-57
2023/03/14 05:39:19;;;;;;;9.95;1.20;;;5.30;99.90;;;;;;5005056;28;20049;-59
2023/03/14 05:41:46;;;;;;;4.63;1.45;;;5.30;99.90;;;;;;5020605;28;20045;-58
2023/03/14 05:44:12;;;;;;;11.18;1.73;;;5.30;99.90;;;;;;5018256;28;20050;-58
2023/03/14 05:46:39;;;;;;;12.20;1.48;;;5.40;99.90;;;;;;5020243;28;20046;-60
2023/03/14 05:49:06;;;;;;;12.05;2.85;;;5.40;99.90;;;;;;5025150;28;20393;-58
2023/03/14 05:51:33;;;;;;;7.65;2.22;;;5.40;99.90;;;;;;5022551;28;20045;-59
2023/03/14 05:53:59;;;;;;;8.50;2.92;;;5.40;99.90;;;;;;5004411;28;20049;-59
2023/03/14 05:56:26;;;;;;;7.05;1.02;;;5.40;99.90;;;;;;5014157;28;20120;-58
2023/03/14 05:58:53;;;;;;;9.07;1.15;;;5.40;99.90;;;;;;5001165;28;20050;-57
2023/03/14 06:01:19;;;;;;;4.15;1.20;;;5.40;99.90;;;;;;5021144;28;20492;-57
2023/03/14 06:03:46;;;;;;;8.73;1.08;;;5.40;99.90;;;;;;5022371;28;20417;-58
2023/03/14 06:06:13;;;;;;;11.02;1.33;;;5.40;99.90;;;;;;5012982;28;20133;-59
2023/03/14 06:08:40;;;;;;;6.55;0.80;;;5.40;99.90;;;;;;5014767;28;20133;-58
2023/03/14 06:11:07;;;;;;;5.38;1.20;;;5.50;99.90;;;;;;5028278;28;20053;-56
2023/03/14 06:13:36;;;;;;;9.30;1.88;;;5.30;99.90;;;;;;5016890;28;20053;-57
2023/03/14 06:16:03;;;;;;;22.83;2.03;;;5.40;99.90;;;;;;5023201;28;20046;-56
2023/03/14 06:18:29;;;;;;;9.18;1.20;;;5.40;99.90;;;;;;5018144;28;20052;-58
2023/03/14 06:20:56;;;;;;;9.90;1.13;;;5.40;99.90;;;;;;5029192;28;20611;-58
2023/03/14 06:23:23;;;;;;;8.15;1.38;;;5.40;99.90;;;;;;5002214;28;20073;-58
2023/03/14 06:25:50;;;;;;;8.13;0.88;;;5.40;99.90;;;;;;5024114;28;20077;-59
2023/03/14 06:28:17;;;;;;;16.80;3.08;;;5.40;99.90;;;;;;5004295;28;20050;-59
2023/03/14 06:30:43;;;;;;;8.02;1.52;;;5.50;99.90;;;;;;4989590;28;20081;-58
2023/03/14 06:33:10;;;;;;;9.98;1.27;;;5.50;99.90;;;;;;5020850;28;20045;-58
2023/03/14 06:35:37;;;;;;;9.25;2.15;;;5.50;99.90;;;;;;5019033;28;20049;-59
2023/03/14 06:38:04;;;;;;;7.35;1.25;;;5.50;99.90;;;;;;5024547;28;20057;-59
2023/03/14 06:40:31;;;;;;;4.97;1.15;;;5.50;99.90;;;;;;5022442;28;20045;-58
2023/03/14 06:42:57;;;;;;;4.78;1.40;;;5.60;99.90;;;;;;5021539;28;20054;-60
2023/03/14 06:45:24;;;;;;;10.23;1.55;;;5.60;99.90;;;;;;5018519;28;20037;-60
2023/03/14 06:47:51;;;;;;;4.72;1.38;;;5.60;99.90;;;;;;5026241;28;20058;-59
2023/03/14 06:50:18;;;;;;;12.57;1.92;;;5.70;99.90;;;;;;5024215;28;20435;-57
2023/03/14 06:52:47;;;;;;;9.35;1.40;;;5.60;99.90;;;;;;5026619;28;20046;-59
2023/03/14 06:55:15;;;;;;;19.23;3.17;;;5.60;99.90;;;;;;5021083;28;20076;-58
2023/03/14 06:57:43;;;;;;;12.13;1.45;;;5.60;99.90;;;;;;4993471;28;20045;-58
2023/03/14 07:00:11;;;;;;;12.68;1.48;;;5.60;99.90;;;;;;5015303;28;20507;-58
2023/03/14 07:02:38;;;;;;;12.52;1.58;;;5.60;99.90;;;;;;5022890;28;20100;-58
2023/03/14 07:05:10;;;;;;;8.80;1.63;;;5.70;99.90;;;;;;5017135;28;20477;-56
2023/03/14 07:07:36;;;;;;;5.30;1.05;;;5.70;99.90;;;;;;5026227;28;20049;-58
2023/03/14 07:10:04;;;;;;;6.80;1.58;;;5.70;99.90;;;;;;5020293;28;20091;-58
2023/03/14 07:12:30;;;;;;;17.45;1.38;;;5.70;99.90;;;;;;5013193;28;20049;-57
2023/03/14 07:14:57;;;;;;;8.85;1.60;;;5.70;99.90;;;;;;5015658;28;20472;-60
2023/03/14 07:17:37;;;;;;;6.70;1.58;;;5.70;99.90;;;;;;5016105;28;20045;-58
2023/03/14 07:20:05;;;;;;;10.68;1.92;;;5.70;99.90;;;;;;5020267;28;20507;-56
2023/03/14 07:22:34;;;;;;;8.63;2.15;;;5.80;99.90;;;;;;5015113;28;20097;-63
2023/03/14 07:25:00;;;;;;;11.85;1.80;;;5.70;99.90;;;;;;4995577;28;20042;-57
2023/03/14 07:27:27;;;;;;;5.43;1.25;;;5.70;99.90;;;;;;5017508;28;20084;-57
2023/03/14 07:29:54;;;;;;;2.15;1.00;;;5.70;99.90;;;;;;5013904;28;20466;-58
2023/03/14 07:32:21;;;;;;;10.20;1.67;;;5.80;99.90;;;;;;5020815;28;20045;-58
2023/03/14 07:34:48;;;;;;;12.77;2.40;;;5.80;99.90;;;;;;5023202;28;20069;-58
2023/03/14 07:37:14;;;;;;;8.90;3.80;;;5.80;99.90;;;;;;5012046;28;20061;-57
2023/03/14 07:39:41;;;;;;;6.22;1.15;;;5.80;99.90;;;;;;5010523;28;20084;-57
2023/03/14 07:42:08;;;;;;;5.95;1.25;;;5.80;99.90;;;;;;5015004;28;20101;-57
2023/03/14 07:44:35;;;;;;;9.35;2.28;;;5.80;99.90;;;;;;5024299;28;20048;-56
2023/03/14 07:47:02;;;;;;;7.07;1.10;;;5.80;99.90;;;;;;5021492;28;20347;-58
2023/03/14 07:49:29;;;;;;;11.25;1.30;;;5.70;99.90;;;;;;5009075;28;20052;-57
2023/03/14 07:51:55;;;;;;;11.10;2.80;;;5.70;99.90;;;;;;5016938;28;20045;-56
2023/03/14 07:54:23;;;;;;;10.57;1.63;;;5.70;99.90;;;;;;5016069;28;20050;-57
2023/03/14 07:56:51;;;;;;;14.93;2.22;;;5.70;99.90;;;;;;5014962;28;20577;-56
2023/03/14 07:59:18;;;;;;;5.82;1.42;;;5.70;99.90;;;;;;5000313;28;20053;-57
2023/03/14 08:01:45;;;;;;;6.22;1.33;;;5.80;99.90;;;;;;5018390;28;20049;-55
2023/03/14 08:04:11;;;;;;;8.48;1.40;;;5.60;99.90;;;;;;5002319;28;20085;-58
2023/03/14 08:06:38;;;;;;;4.03;1.05;;;5.50;99.90;;;;;;5014853;28;20053;-58
2023/03/14 08:09:05;;;;;;;8.68;2.08;;;5.40;99.90;;;;;;5016818;28;20081;-58
2023/03/14 08:11:32;;;;;;;7.32;1.23;;;5.40;99.90;;;;;;5020032;28;20045;-58
2023/03/14 08:13:58;;;;;;;3.80;1.35;;;5.20;99.90;;;;;;5016589;28;20052;-57
2023/03/14 08:16:25;;;;;;;5.32;1.10;;;5.10;99.90;;;;;;5021751;28;20058;-58
2023/03/14 08:18:52;;;;;;;5.32;1.17;;;5.20;99.90;;;;;;5016156;28;20119;-58
2023/03/14 08:21:19;;;;;;;4.95;1.05;;;5.10;99.90;;;;;;5021793;28;20052;-57
2023/03/14 08:23:46;;;;;;;5.57;0.88;;;5.00;99.90;;;;;;5015674;28;20547;-57
2023/03/14 08:26:12;;;;;;;1.92;0.85;;;5.00;99.90;;;;;;5023868;28;20136;-58
2023/03/14 08:28:39;;;;;;;8.45;1.42;;;5.00;99.90;;;;;;5014622;28;20046;-58
2023/03/14 08:31:06;;;;;;;5.90;0.70;;;5.00;99.90;;;;;;5023565;28;20045;-56
2023/03/14 08:33:33;;;;;;;4.60;1.73;;;4.90;99.90;;;;;;4674260;28;9999774;-59
2023/03/14 08:36:00;;;;;;;1.92;0.60;;;4.90;99.90;;;;;;5021100;28;20049;-56
2023/03/14 08:38:27;;;;;;;6.63;1.08;;;5.00;99.90;;;;;;5021059;28;20108;-57
2023/03/14 08:41:00;;;;;;;5.93;0.88;;;4.90;99.90;;;;;;5023925;28;20049;-56
2023/03/14 08:43:28;;;;;;;2.17;0.70;;;4.90;99.90;;;;;;5018582;28;20496;-53
2023/03/14 08:45:57;;;;;;;4.70;0.55;;;4.90;99.90;;;;;;5009535;28;20128;-53
2023/03/14 08:48:24;;;;;;;2.15;0.82;;;4.90;99.90;;;;;;5000984;28;20045;-55
2023/03/14 08:50:51;;;;;;;2.05;0.68;;;4.90;99.90;;;;;;5027729;28;20084;-57
2023/03/14 08:53:18;;;;;;;0.90;0.70;;;4.80;99.90;;;;;;5017494;28;20227;-55
2023/03/14 08:55:45;;;;;;;2.75;0.60;;;4.80;99.90;;;;;;5014075;28;20046;-51
2023/03/14 08:58:12;;;;;;;2.70;0.82;;;4.70;99.90;;;;;;5013491;28;20056;-52
2023/03/14 09:00:39;;;;;;;0.60;0.60;;;4.70;99.90;;;;;;5015831;28;20045;-56
2023/03/14 09:03:05;;;;;;;1.75;0.70;;;4.60;99.90;;;;;;5010930;28;20572;-53
2023/03/14 09:05:34;;;;;;;3.20;0.93;;;4.60;99.90;;;;;;5016419;28;20072;-54
2023/03/14 09:08:01;;;;;;;4.03;0.80;;;4.70;99.90;;;;;;5022168;28;20049;-54
2023/03/14 09:10:27;;;;;;;3.90;0.82;;;4.60;99.90;;;;;;5021284;28;20041;-52
2023/03/14 09:12:54;;;;;;;2.15;0.75;;;4.70;99.90;;;;;;5023812;28;20145;-59
2023/03/14 09:15:22;;;;;;;1.63;0.60;;;4.80;99.90;;;;;;5015492;28;20053;-57
2023/03/14 09:17:48;;;;;;;1.35;0.63;;;4.90;99.90;;;;;;5024612;28;20149;-56
2023/03/14 09:20:15;;;;;;;0.75;0.60;;;4.80;99.90;;;;;;5021722;28;20049;-58
2023/03/14 09:22:42;;;;;;;1.10;0.47;;;4.80;99.90;;;;;;5024342;28;20689;-56
2023/03/14 09:25:10;;;;;;;1.75;1.00;;;4.80;99.90;;;;;;4996686;28;20057;-56
2023/03/14 09:27:37;;;;;;;2.63;0.50;;;4.90;99.90;;;;;;5025512;28;20136;-56
2023/03/14 09:30:04;;;;;;;1.33;0.60;;;5.00;99.90;;;;;;5022364;28;20053;-55
2023/03/14 09:32:31;;;;;;;0.98;0.63;;;5.00;99.90;;;;;;5023275;28;20212;-57
2023/03/14 09:34:58;;;;;;;2.78;0.57;;;5.00;99.90;;;;;;5015985;28;20144;-55
2023/03/14 09:37:25;;;;;;;3.92;0.63;;;5.00;99.90;;;;;;5023170;28;20115;-54
2023/03/14 09:39:52;;;;;;;2.20;0.47;;;5.00;99.90;;;;;;5021667;28;20045;-53
2023/03/14 09:42:23;;;;;;;3.13;0.82;;;5.00;99.90;;;;;;5012968;28;20046;-58
2023/03/14 09:45:23;;;;;;;2.22;0.77;;;5.00;99.90;;;;;;4997587;28;20501;-57
2023/03/14 09:47:50;;;;;;;5.10;1.17;;;4.90;99.90;;;;;;5022705;28;20219;-56
2023/03/14 09:50:25;;;;;;;1.95;0.82;;;4.90;99.90;;;;;;5002600;28;20053;-55
2023/03/14 09:52:56;;;;;;;1.65;0.65;;;4.90;99.90;;;;;;4993644;28;20149;-55
2023/03/14 09:55:23;;;;;;;4.20;1.23;;;4.90;99.90;;;;;;4997937;28;20085;-57
2023/03/14 09:57:50;;;;;;;3.80;1.35;;;4.80;99.90;;;;;;5020002;28;20502;-55
2023/03/14 10:00:18;;;;;;;9.75;1.20;;;4.80;99.90;;;;;;5001098;28;20064;-57
2023/03/14 10:03:13;;;;;;;3.83;1.05;;;4.70;99.90;;;;;;5018050;28;20085;-56
2023/03/14 10:05:43;;;;;;;1.73;0.88;;;4.60;99.90;;;;;;5015927;28;20053;-56
2023/03/14 10:08:10;;;;;;;3.85;1.40;;;4.60;99.90;;;;;;5012107;28;20057;-54
2023/03/14 10:10:37;;;;;;;4.75;1.00;;;4.60;99.90;;;;;;4994829;28;20048;-56
2023/03/14 10:13:25;;;;;;;3.60;1.30;;;4.60;99.90;;;;;;5014499;28;20050;-57
2023/03/14 10:16:03;;;;;;;6.18;1.70;;;4.70;99.90;;;;;;5012468;28;20080;-57
2023/03/14 10:18:30;;;;;;;6.97;1.23;;;4.70;99.90;;;;;;5012601;28;20045;-55
2023/03/14 10:21:39;;;;;;;10.68;1.63;;;4.70;99.90;;;;;;5012487;28;20052;-54
2023/03/14 10:24:25;;;;;;;6.15;1.70;;;4.80;99.90;;;;;;4963985;28;20628;-56
2023/03/14 10:26:53;;;;;;;7.20;1.77;;;5.00;99.90;;;;;;5013188;28;20532;-55
2023/03/14 10:29:21;;;;;;;8.50;2.08;;;5.00;99.90;;;;;;5023232;28;20535;-55
2023/03/14 10:31:53;;;;;;;5.35;1.52;;;5.00;99.90;;;;;;4998219;28;20512;-57
2023/03/14 10:34:30;;;;;;;5.90;1.55;;;5.00;99.90;;;;;;5009525;28;20046;-55
2023/03/14 10:36:59;;;;;;;6.80;1.58;;;5.30;99.90;;;;;;4998519;28;20054;-55
2023/03/14 10:39:38;;;;;;;12.63;1.48;;;5.40;99.90;;;;;;5012569;28;20073;-56
2023/03/14 10:42:33;;;;;;;8.20;1.83;;;5.50;99.90;;;;;;4999061;28;20049;-54
2023/03/14 10:45:02;;;;;;;5.60;1.52;;;5.60;99.90;;;;;;5012535;28;20513;-57
2023/03/14 10:47:29;;;;;;;6.60;1.67;;;5.60;99.90;;;;;;4996949;28;20085;-54
2023/03/14 10:49:56;;;;;;;6.38;1.95;;;5.70;99.90;;;;;;5022196;28;20053;-56
2023/03/14 10:52:25;;;;;;;3.97;1.50;;;5.90;99.90;;;;;;4997427;28;20421;-58
2023/03/14 10:55:11;;;;;;;5.05;1.70;;;6.00;99.90;;;;;;5025361;28;20115;-54
2023/03/14 10:57:41;;;;;;;9.82;1.80;;;6.10;99.90;;;;;;4998843;28;20050;-55
2023/03/14 11:00:16;;;;;;;9.13;2.08;;;6.20;99.90;;;;;;5005823;28;20053;-56
2023/03/14 11:03:10;;;;;;;6.85;1.85;;;6.30;99.90;;;;;;5000792;28;20480;-57
2023/03/14 11:05:54;;;;;;;4.47;1.80;;;6.30;99.90;;;;;;5024748;28;20087;-58
2023/03/14 11:08:32;;;;;;;6.60;1.48;;;6.40;99.90;;;;;;4998302;28;20060;-53
2023/03/14 11:11:24;;;;;;;7.18;1.27;;;6.60;99.90;;;;;;5009126;28;20045;-57
2023/03/14 11:14:16;;;;;;;5.35;1.35;;;6.70;99.90;;;;;;5004840;28;20090;-57
2023/03/14 11:17:16;;;;;;;8.93;2.13;;;6.90;99.90;;;;;;5010485;28;20107;-57
2023/03/14 11:19:51;;;;;;;7.50;1.48;;;7.00;99.90;;;;;;5022170;28;20452;-57
2023/03/14 11:22:18;;;;;;;6.43;1.33;;;7.00;99.90;;;;;;5006102;28;20041;-58
2023/03/14 11:24:55;;;;;;;6.93;1.35;;;7.10;99.90;;;;;;5017060;28;20129;-56
2023/03/14 11:27:41;;;;;;;13.05;1.48;;;7.20;99.90;;;;;;5006843;28;20041;-58
2023/03/14 11:30:19;;;;;;;7.32;2.25;;;7.10;99.90;;;;;;5009975;28;20333;-58
2023/03/14 11:32:51;;;;;;;3.38;1.13;;;7.00;99.90;;;;;;4997503;28;20089;-58
2023/03/14 11:35:24;;;;;;;6.55;1.90;;;7.10;99.90;;;;;;5016093;28;20050;-57
2023/03/14 11:38:00;;;;;;;9.23;1.77;;;7.30;99.90;;;;;;5005918;28;20128;-57
2023/03/14 11:40:27;;;;;;;12.50;1.80;;;7.30;99.90;;;;;;4977916;28;20199;-56
2023/03/14 11:43:15;;;;;;;6.25;1.70;;;7.30;99.90;;;;;;5013872;28;20053;-57
2023/03/14 11:45:42;;;;;;;15.43;2.50;;;7.20;99.90;;;;;;4997550;28;20052;-58
2023/03/14 11:48:19;;;;;;;9.98;1.45;;;7.20;99.90;;;;;;5005635;28;20041;-58
2023/03/14 11:50:46;;;;;;;11.90;2.95;;;7.20;99.90;;;;;;4996511;28;20483;-56
2023/03/14 11:53:37;;;;;;;11.85;2.08;;;7.10;99.90;;;;;;5003894;28;20125;-58
2023/03/14 11:56:08;;;;;;;7.55;2.38;;;7.10;99.90;;;;;;4995669;28;20156;-57
2023/03/14 11:58:35;;;;;;;7.15;1.75;;;7.20;99.90;;;;;;4998558;28;20052;-57
2023/03/14 12:01:06;;;;;;;6.95;1.80;;;7.40;99.90;;;;;;5001106;28;20050;-58
2023/03/14 12:03:51;;;;;;;5.55;1.52;;;7.40;99.90;;;;;;4995574;28;20055;-58
2023/03/14 12:06:49;;;;;;;10.38;1.65;;;7.40;99.90;;;;;;5018749;28;20054;-56
2023/03/14 12:09:17;;;;;;;20.10;1.80;;;7.50;99.90;;;;;;4997686;28;20046;-59
2023/03/14 12:11:50;;;;;;;20.30;4.18;;;7.40;99.90;;;;;;5013060;28;20422;-58
2023/03/14 12:14:34;;;;;;;13.40;3.20;;;7.50;99.90;;;;;;5009228;28;20469;-57
2023/03/14 12:17:18;;;;;;;9.30;1.85;;;7.50;99.90;;;;;;5021346;28;20095;-58
2023/03/14 12:19:46;;;;;;;6.10;1.40;;;7.50;99.90;;;;;;4993822;28;20045;-58
2023/03/14 12:22:21;;;;;;;14.00;2.35;;;7.60;99.90;;;;;;5004042;28;20060;-57
2023/03/14 12:24:54;;;;;;;13.55;1.83;;;7.80;99.90;;;;;;5008775;28;20053;-56
2023/03/14 12:27:54;;;;;;;12.02;2.15;;;8.00;99.90;;;;;;5003239;28;20132;-57
2023/03/14 12:30:37;;;;;;;6.75;1.65;;;8.20;99.90;;;;;;5021118;28;20462;-59
2023/03/14 12:33:10;;;;;;;16.42;1.95;;;8.10;99.90;;;;;;5017284;28;20560;-58
2023/03/14 12:35:44;;;;;;;11.77;2.10;;;8.00;99.90;;;;;;5017798;28;20133;-58
2023/03/14 12:38:14;;;;;;;5.13;1.38;;;8.10;99.90;;;;;;5006874;28;20073;-57
2023/03/14 12:41:17;;;;;;;7.30;1.10;;;8.10;99.90;;;;;;5005983;28;20061;-57
2023/03/14 12:43:44;;;;;;;14.63;1.35;;;8.10;99.90;;;;;;5013809;28;20050;-57
2023/03/14 12:46:17;;;;;;;16.13;1.77;;;8.30;99.90;;;;;;5019556;28;20041;-56
2023/03/14 12:48:44;;;;;;;7.37;1.70;;;8.00;99.90;;;;;;5022098;28;20103;-57
2023/03/14 12:51:18;;;;;;;33.40;4.05;;;8.00;99.90;;;;;;5003238;28;20042;-58
2023/03/14 12:53:50;;;;;;;;;;;8.20;99.90;;;;;;4996193;28;20104;-57
2023/03/14 12:56:22;;;;;;;4.95;1.45;;;8.30;99.90;;;;;;4655275;28;10001014;-57
2023/03/14 12:59:04;;;;;;;12.80;2.25;;;8.20;99.90;;;;;;5024293;28;20045;-57
2023/03/14 13:01:32;;;;;;;6.22;1.90;;;8.20;99.90;;;;;;5021582;28;20544;-58
2023/03/14 13:04:09;;;;;;;11.07;4.05;;;8.10;99.90;;;;;;5006282;28;20080;-56
2023/03/14 13:06:53;;;;;;;7.57;1.65;;;7.90;99.90;;;;;;5007952;28;20575;-57